sensor_id;sensor_type;location;lat;lon;timestamp;temperature;humidity
2783;DHT22;1399;47.072;15.452;2024-01-15T00:02:22;5.30;44.30
2783;DHT22;1399;47.072;15.452;2024-01-15T00:04:48;5.30;44.40
2783;DHT22;1399;47.072;15.452;2024-01-15T00:07:14;5.30;44.30
2783;DHT22;1399;47.072;15.452;2024-01-15T00:09:40;5.30;44.30
2783;DHT22;1399;47.072;15.452;2024-01-15T00:12:06;5.20;44.20
2783;DHT22;1399;47.072;15.452;2024-01-15T00:14:32;5.20;44.10
2783;DHT22;1399;47.072;15.452;2024-01-15T00:16:58;5.20;44.10
2783;DHT22;1399;47.072;15.452;2024-01-15T00:19:24;5.20;44.10
2783;DHT22;1399;47.072;15.452;2024-01-15T00:21:50;5.20;44.20
2783;DHT22;1399;47.072;15.452;2024-01-15T00:24:16;5.20;44.10
2783;DHT22;1399;47.072;15.452;2024-01-15T00:26:42;5.10;44.00
2783;DHT22;1399;47.072;15.452;2024-01-15T00:29:09;5.10;44.00
2783;DHT22;1399;47.072;15.452;2024-01-15T00:31:35;5.10;44.00
2783;DHT22;1399;47.072;15.452;2024-01-15T00:34:01;5.10;44.00
2783;DHT22;1399;47.072;15.452;2024-01-15T00:36:26;5.10;43.90
2783;DHT22;1399;47.072;15.452;2024-01-15T00:38:53;5.10;43.90
2783;DHT22;1399;47.072;15.452;2024-01-15T00:41:19;5.00;43.70
2783;DHT22;1399;47.072;15.452;2024-01-15T00:43:45;5.10;43.80
2783;DHT22;1399;47.072;15.452;2024-01-15T00:46:11;5.10;43.80
2783;DHT22;1399;47.072;15.452;2024-01-15T00:48:37;5.00;43.70
2783;DHT22;1399;47.072;15.452;2024-01-15T00:51:04;5.00;43.70
2783;DHT22;1399;47.072;15.452;2024-01-15T00:53:31;5.00;43.60
2783;DHT22;1399;47.072;15.452;2024-01-15T00:55:57;5.00;43.60
2783;DHT22;1399;47.072;15.452;2024-01-15T00:58:22;5.00;43.60
2783;DHT22;1399;47.072;15.452;2024-01-15T01:00:48;4.90;43.50
2783;DHT22;1399;47.072;15.452;2024-01-15T01:03:14;5.00;43.60
2783;DHT22;1399;47.072;15.452;2024-01-15T01:05:40;4.90;43.40
2783;DHT22;1399;47.072;15.452;2024-01-15T01:08:06;4.90;43.40
2783;DHT22;1399;47.072;15.452;2024-01-15T01:10:31;4.90;43.30
2783;DHT22;1399;47.072;15.452;2024-01-15T01:12:57;4.90;43.30
2783;DHT22;1399;47.072;15.452;2024-01-15T01:15:23;4.90;43.30
2783;DHT22;1399;47.072;15.452;2024-01-15T01:17:50;4.90;43.30
2783;DHT22;1399;47.072;15.452;2024-01-15T01:20:16;4.90;43.20
2783;DHT22;1399;47.072;15.452;2024-01-15T01:22:42;4.90;43.20
2783;DHT22;1399;47.072;15.452;2024-01-15T01:25:07;4.90;43.20
2783;DHT22;1399;47.072;15.452;2024-01-15T01:27:35;4.80;43.10
2783;DHT22;1399;47.072;15.452;2024-01-15T01:30:01;4.90;43.20
2783;DHT22;1399;47.072;15.452;2024-01-15T01:32:27;4.80;43.10
2783;DHT22;1399;47.072;15.452;2024-01-15T01:34:53;4.80;43.10
2783;DHT22;1399;47.072;15.452;2024-01-15T01:37:18;4.80;43.10
2783;DHT22;1399;47.072;15.452;2024-01-15T01:39:44;4.80;43.10
2783;DHT22;1399;47.072;15.452;2024-01-15T01:42:11;4.80;43.10
2783;DHT22;1399;47.072;15.452;2024-01-15T01:44:37;4.80;43.10
2783;DHT22;1399;47.072;15.452;2024-01-15T01:47:04;4.80;43.10
2783;DHT22;1399;47.072;15.452;2024-01-15T01:49:30;4.80;43.10
2783;DHT22;1399;47.072;15.452;2024-01-15T01:51:57;4.80;43.10
2783;DHT22;1399;47.072;15.452;2024-01-15T01:54:25;4.80;43.10
2783;DHT22;1399;47.072;15.452;2024-01-15T01:56:52;4.80;43.20
2783;DHT22;1399;47.072;15.452;2024-01-15T01:59:18;4.80;43.20
2783;DHT22;1399;47.072;15.452;2024-01-15T02:01:44;4.80;43.20
2783;DHT22;1399;47.072;15.452;2024-01-15T02:04:11;4.80;43.20
2783;DHT22;1399;47.072;15.452;2024-01-15T02:06:37;4.80;43.20
2783;DHT22;1399;47.072;15.452;2024-01-15T02:09:03;4.80;43.20
2783;DHT22;1399;47.072;15.452;2024-01-15T02:11:31;4.80;43.10
2783;DHT22;1399;47.072;15.452;2024-01-15T02:13:57;4.80;42.90
2783;DHT22;1399;47.072;15.452;2024-01-15T02:16:23;4.80;42.80
2783;DHT22;1399;47.072;15.452;2024-01-15T02:18:49;4.70;42.60
2783;DHT22;1399;47.072;15.452;2024-01-15T02:21:15;4.70;42.60
2783;DHT22;1399;47.072;15.452;2024-01-15T02:23:41;4.70;42.60
2783;DHT22;1399;47.072;15.452;2024-01-15T02:26:08;4.70;42.50
2783;DHT22;1399;47.072;15.452;2024-01-15T02:28:34;4.70;42.40
2783;DHT22;1399;47.072;15.452;2024-01-15T02:31:00;4.70;42.40
2783;DHT22;1399;47.072;15.452;2024-01-15T02:33:26;4.70;42.40
2783;DHT22;1399;47.072;15.452;2024-01-15T02:35:52;4.70;42.30
2783;DHT22;1399;47.072;15.452;2024-01-15T02:38:17;4.70;42.90
2783;DHT22;1399;47.072;15.452;2024-01-15T02:40:44;4.70;42.30
2783;DHT22;1399;47.072;15.452;2024-01-15T02:43:10;4.70;42.30
2783;DHT22;1399;47.072;15.452;2024-01-15T02:45:37;4.70;42.30
2783;DHT22;1399;47.072;15.452;2024-01-15T02:48:03;4.70;42.30
2783;DHT22;1399;47.072;15.452;2024-01-15T02:50:29;4.70;42.30
2783;DHT22;1399;47.072;15.452;2024-01-15T02:52:54;4.70;42.30
2783;DHT22;1399;47.072;15.452;2024-01-15T02:55:20;4.70;42.30
2783;DHT22;1399;47.072;15.452;2024-01-15T02:57:46;4.70;42.40
2783;DHT22;1399;47.072;15.452;2024-01-15T03:00:12;4.70;42.30
2783;DHT22;1399;47.072;15.452;2024-01-15T03:02:40;4.70;42.30
2783;DHT22;1399;47.072;15.452;2024-01-15T03:05:07;4.70;42.20
2783;DHT22;1399;47.072;15.452;2024-01-15T03:07:33;4.70;42.20
2783;DHT22;1399;47.072;15.452;2024-01-15T03:09:59;4.70;42.30
2783;DHT22;1399;47.072;15.452;2024-01-15T03:12:25;4.70;42.30
2783;DHT22;1399;47.072;15.452;2024-01-15T03:14:50;4.70;42.30
2783;DHT22;1399;47.072;15.452;2024-01-15T03:17:16;4.70;42.30
2783;DHT22;1399;47.072;15.452;2024-01-15T03:19:42;4.70;42.30
2783;DHT22;1399;47.072;15.452;2024-01-15T03:22:08;4.70;42.40
2783;DHT22;1399;47.072;15.452;2024-01-15T03:24:35;4.70;42.40
2783;DHT22;1399;47.072;15.452;2024-01-15T03:27:02;4.70;42.40
2783;DHT22;1399;47.072;15.452;2024-01-15T03:29:27;4.70;42.30
2783;DHT22;1399;47.072;15.452;2024-01-15T03:31:53;4.70;42.20
2783;DHT22;1399;47.072;15.452;2024-01-15T03:34:19;4.70;42.20
2783;DHT22;1399;47.072;15.452;2024-01-15T03:36:45;4.70;42.20
2783;DHT22;1399;47.072;15.452;2024-01-15T03:39:11;4.70;42.10
2783;DHT22;1399;47.072;15.452;2024-01-15T03:41:37;4.70;42.10
2783;DHT22;1399;47.072;15.452;2024-01-15T03:44:03;4.70;42.10
2783;DHT22;1399;47.072;15.452;2024-01-15T03:46:29;4.70;42.00
2783;DHT22;1399;47.072;15.452;2024-01-15T03:48:54;4.70;42.60
2783;DHT22;1399;47.072;15.452;2024-01-15T03:51:20;4.70;41.90
2783;DHT22;1399;47.072;15.452;2024-01-15T03:53:46;4.70;41.90
2783;DHT22;1399;47.072;15.452;2024-01-15T03:56:13;4.70;41.90
2783;DHT22;1399;47.072;15.452;2024-01-15T03:58:39;4.70;41.80
2783;DHT22;1399;47.072;15.452;2024-01-15T04:01:11;4.70;41.90
2783;DHT22;1399;47.072;15.452;2024-01-15T04:03:37;4.70;41.90
2783;DHT22;1399;47.072;15.452;2024-01-15T04:06:03;4.70;41.90
2783;DHT22;1399;47.072;15.452;2024-01-15T04:08:29;4.70;41.90
2783;DHT22;1399;47.072;15.452;2024-01-15T04:10:55;4.70;41.90
2783;DHT22;1399;47.072;15.452;2024-01-15T04:13:22;4.70;41.90
2783;DHT22;1399;47.072;15.452;2024-01-15T04:15:47;4.80;42.00
2783;DHT22;1399;47.072;15.452;2024-01-15T04:18:15;4.80;42.10
2783;DHT22;1399;47.072;15.452;2024-01-15T04:20:41;4.70;42.00
2783;DHT22;1399;47.072;15.452;2024-01-15T04:23:07;4.80;42.10
2783;DHT22;1399;47.072;15.452;2024-01-15T04:25:33;4.70;42.10
2783;DHT22;1399;47.072;15.452;2024-01-15T04:27:59;4.80;42.20
2783;DHT22;1399;47.072;15.452;2024-01-15T04:30:25;4.80;42.30
2783;DHT22;1399;47.072;15.452;2024-01-15T04:32:51;4.80;42.40
2783;DHT22;1399;47.072;15.452;2024-01-15T04:35:16;4.80;42.80
2783;DHT22;1399;47.072;15.452;2024-01-15T04:37:42;4.80;42.80
2783;DHT22;1399;47.072;15.452;2024-01-15T04:40:09;4.80;43.00
2783;DHT22;1399;47.072;15.452;2024-01-15T04:42:35;4.80;43.10
2783;DHT22;1399;47.072;15.452;2024-01-15T04:45:01;4.80;43.30
2783;DHT22;1399;47.072;15.452;2024-01-15T04:47:26;4.90;43.40
2783;DHT22;1399;47.072;15.452;2024-01-15T04:49:52;4.80;43.50
2783;DHT22;1399;47.072;15.452;2024-01-15T04:52:18;4.90;43.70
2783;DHT22;1399;47.072;15.452;2024-01-15T04:54:44;4.90;43.80
2783;DHT22;1399;47.072;15.452;2024-01-15T04:57:10;4.90;43.80
2783;DHT22;1399;47.072;15.452;2024-01-15T04:59:36;4.90;43.90
2783;DHT22;1399;47.072;15.452;2024-01-15T05:02:02;4.90;43.90
2783;DHT22;1399;47.072;15.452;2024-01-15T05:04:28;4.90;44.00
2783;DHT22;1399;47.072;15.452;2024-01-15T05:06:56;4.90;44.00
2783;DHT22;1399;47.072;15.452;2024-01-15T05:09:22;4.90;44.20
2783;DHT22;1399;47.072;15.452;2024-01-15T05:11:47;4.90;44.20
2783;DHT22;1399;47.072;15.452;2024-01-15T05:14:13;4.90;44.20
2783;DHT22;1399;47.072;15.452;2024-01-15T05:16:39;4.90;44.30
2783;DHT22;1399;47.072;15.452;2024-01-15T05:19:07;4.90;44.40
2783;DHT22;1399;47.072;15.452;2024-01-15T05:21:33;4.90;44.50
2783;DHT22;1399;47.072;15.452;2024-01-15T05:23:59;4.90;44.50
2783;DHT22;1399;47.072;15.452;2024-01-15T05:26:24;4.90;44.50
2783;DHT22;1399;47.072;15.452;2024-01-15T05:28:50;4.90;44.50
2783;DHT22;1399;47.072;15.452;2024-01-15T05:31:16;4.90;44.50
2783;DHT22;1399;47.072;15.452;2024-01-15T05:33:41;4.90;44.50
2783;DHT22;1399;47.072;15.452;2024-01-15T05:36:07;5.00;44.60
2783;DHT22;1399;47.072;15.452;2024-01-15T05:38:33;5.00;44.60
2783;DHT22;1399;47.072;15.452;2024-01-15T05:40:59;4.90;44.50
2783;DHT22;1399;47.072;15.452;2024-01-15T05:43:25;5.00;44.70
2783;DHT22;1399;47.072;15.452;2024-01-15T05:45:51;5.00;44.70
2783;DHT22;1399;47.072;15.452;2024-01-15T05:48:16;5.00;44.70
2783;DHT22;1399;47.072;15.452;2024-01-15T05:50:42;5.00;44.80
2783;DHT22;1399;47.072;15.452;2024-01-15T05:53:08;5.00;44.80
2783;DHT22;1399;47.072;15.452;2024-01-15T05:55:36;4.90;44.70
2783;DHT22;1399;47.072;15.452;2024-01-15T05:58:02;5.00;44.80
2783;DHT22;1399;47.072;15.452;2024-01-15T06:00:28;5.00;44.70
2783;DHT22;1399;47.072;15.452;2024-01-15T06:02:54;5.00;44.80
2783;DHT22;1399;47.072;15.452;2024-01-15T06:05:20;4.90;44.60
2783;DHT22;1399;47.072;15.452;2024-01-15T06:07:46;4.90;44.60
2783;DHT22;1399;47.072;15.452;2024-01-15T06:10:12;5.00;44.70
2783;DHT22;1399;47.072;15.452;2024-01-15T06:12:37;4.90;44.60
2783;DHT22;1399;47.072;15.452;2024-01-15T06:15:03;4.90;44.50
2783;DHT22;1399;47.072;15.452;2024-01-15T06:17:29;4.90;44.50
2783;DHT22;1399;47.072;15.452;2024-01-15T06:19:55;4.90;44.40
2783;DHT22;1399;47.072;15.452;2024-01-15T06:22:20;4.90;44.40
2783;DHT22;1399;47.072;15.452;2024-01-15T06:24:46;4.90;45.00
2783;DHT22;1399;47.072;15.452;2024-01-15T06:27:12;4.90;44.20
2783;DHT22;1399;47.072;15.452;2024-01-15T06:29:38;4.90;44.20
2783;DHT22;1399;47.072;15.452;2024-01-15T06:32:04;4.90;44.00
2783;DHT22;1399;47.072;15.452;2024-01-15T06:34:30;4.90;43.90
2783;DHT22;1399;47.072;15.452;2024-01-15T06:36:56;4.90;43.90
2783;DHT22;1399;47.072;15.452;2024-01-15T06:39:22;4.90;43.80
2783;DHT22;1399;47.072;15.452;2024-01-15T06:41:47;4.80;43.70
2783;DHT22;1399;47.072;15.452;2024-01-15T06:44:13;4.80;43.60
2783;DHT22;1399;47.072;15.452;2024-01-15T06:46:43;4.80;43.60
2783;DHT22;1399;47.072;15.452;2024-01-15T06:49:09;4.80;43.60
2783;DHT22;1399;47.072;15.452;2024-01-15T06:51:35;4.80;43.60
2783;DHT22;1399;47.072;15.452;2024-01-15T06:54:01;4.80;43.60
2783;DHT22;1399;47.072;15.452;2024-01-15T06:56:27;4.80;43.60
2783;DHT22;1399;47.072;15.452;2024-01-15T06:58:53;4.80;43.60
2783;DHT22;1399;47.072;15.452;2024-01-15T07:01:19;4.80;43.60
2783;DHT22;1399;47.072;15.452;2024-01-15T07:03:44;4.80;43.60
2783;DHT22;1399;47.072;15.452;2024-01-15T07:06:11;4.80;43.50
2783;DHT22;1399;47.072;15.452;2024-01-15T07:08:37;4.80;43.50
2783;DHT22;1399;47.072;15.452;2024-01-15T07:11:04;4.80;43.50
2783;DHT22;1399;47.072;15.452;2024-01-15T07:13:30;4.80;43.50
2783;DHT22;1399;47.072;15.452;2024-01-15T07:15:56;4.80;43.60
2783;DHT22;1399;47.072;15.452;2024-01-15T07:18:21;4.80;43.50
2783;DHT22;1399;47.072;15.452;2024-01-15T07:20:47;4.80;43.50
2783;DHT22;1399;47.072;15.452;2024-01-15T07:23:13;4.80;43.40
2783;DHT22;1399;47.072;15.452;2024-01-15T07:25:39;4.80;43.30
2783;DHT22;1399;47.072;15.452;2024-01-15T07:28:05;4.80;43.30
2783;DHT22;1399;47.072;15.452;2024-01-15T07:30:30;4.80;43.30
2783;DHT22;1399;47.072;15.452;2024-01-15T07:32:56;4.80;43.30
2783;DHT22;1399;47.072;15.452;2024-01-15T07:35:22;4.80;43.30
2783;DHT22;1399;47.072;15.452;2024-01-15T07:37:48;4.90;43.40
2783;DHT22;1399;47.072;15.452;2024-01-15T07:40:14;4.90;43.60
2783;DHT22;1399;47.072;15.452;2024-01-15T07:42:39;4.90;43.70
2783;DHT22;1399;47.072;15.452;2024-01-15T07:45:05;4.90;43.80
2783;DHT22;1399;47.072;15.452;2024-01-15T07:47:31;4.90;43.90
2783;DHT22;1399;47.072;15.452;2024-01-15T07:49:57;4.90;44.00
2783;DHT22;1399;47.072;15.452;2024-01-15T07:52:23;4.90;44.10
2783;DHT22;1399;47.072;15.452;2024-01-15T07:54:48;5.00;44.30
2783;DHT22;1399;47.072;15.452;2024-01-15T07:57:14;5.00;44.20
2783;DHT22;1399;47.072;15.452;2024-01-15T07:59:40;5.00;44.20
2783;DHT22;1399;47.072;15.452;2024-01-15T08:02:06;5.00;44.40
2783;DHT22;1399;47.072;15.452;2024-01-15T08:04:31;5.00;44.40
2783;DHT22;1399;47.072;15.452;2024-01-15T08:06:57;5.00;44.50
2783;DHT22;1399;47.072;15.452;2024-01-15T08:09:23;5.00;44.40
2783;DHT22;1399;47.072;15.452;2024-01-15T08:11:49;5.00;44.40
2783;DHT22;1399;47.072;15.452;2024-01-15T08:14:15;5.00;44.40
2783;DHT22;1399;47.072;15.452;2024-01-15T08:16:41;5.10;44.50
2783;DHT22;1399;47.072;15.452;2024-01-15T08:19:07;5.00;44.40
2783;DHT22;1399;47.072;15.452;2024-01-15T08:21:32;5.10;44.40
2783;DHT22;1399;47.072;15.452;2024-01-15T08:24:00;5.10;44.50
2783;DHT22;1399;47.072;15.452;2024-01-15T08:26:26;5.10;44.50
2783;DHT22;1399;47.072;15.452;2024-01-15T08:28:52;5.10;44.50
2783;DHT22;1399;47.072;15.452;2024-01-15T08:31:17;5.10;44.50
2783;DHT22;1399;47.072;15.452;2024-01-15T08:33:43;5.10;44.50
2783;DHT22;1399;47.072;15.452;2024-01-15T08:36:09;5.20;44.50
2783;DHT22;1399;47.072;15.452;2024-01-15T08:38:35;5.20;44.60
2783;DHT22;1399;47.072;15.452;2024-01-15T08:41:01;5.20;44.60
2783;DHT22;1399;47.072;15.452;2024-01-15T08:43:27;5.20;44.60
2783;DHT22;1399;47.072;15.452;2024-01-15T08:45:53;5.30;44.70
2783;DHT22;1399;47.072;15.452;2024-01-15T08:48:19;5.30;44.70
2783;DHT22;1399;47.072;15.452;2024-01-15T08:50:45;5.30;44.70
2783;DHT22;1399;47.072;15.452;2024-01-15T08:53:14;5.30;44.80
2783;DHT22;1399;47.072;15.452;2024-01-15T08:55:40;5.30;44.70
2783;DHT22;1399;47.072;15.452;2024-01-15T08:58:08;5.30;44.80
2783;DHT22;1399;47.072;15.452;2024-01-15T09:00:34;5.40;44.80
2783;DHT22;1399;47.072;15.452;2024-01-15T09:03:00;5.40;45.00
2783;DHT22;1399;47.072;15.452;2024-01-15T09:05:25;5.40;45.00
2783;DHT22;1399;47.072;15.452;2024-01-15T09:07:51;5.40;45.10
2783;DHT22;1399;47.072;15.452;2024-01-15T09:10:18;5.40;45.10
2783;DHT22;1399;47.072;15.452;2024-01-15T09:12:44;5.50;45.80
2783;DHT22;1399;47.072;15.452;2024-01-15T09:15:09;5.50;45.40
2783;DHT22;1399;47.072;15.452;2024-01-15T09:17:35;5.50;45.30
2783;DHT22;1399;47.072;15.452;2024-01-15T09:20:01;5.50;45.20
2783;DHT22;1399;47.072;15.452;2024-01-15T09:22:27;5.50;45.20
2783;DHT22;1399;47.072;15.452;2024-01-15T09:24:53;5.60;45.20
2783;DHT22;1399;47.072;15.452;2024-01-15T09:27:18;5.60;45.20
2783;DHT22;1399;47.072;15.452;2024-01-15T09:29:44;5.60;45.20
2783;DHT22;1399;47.072;15.452;2024-01-15T09:32:12;5.60;45.10
2783;DHT22;1399;47.072;15.452;2024-01-15T09:34:38;5.70;45.10
2783;DHT22;1399;47.072;15.452;2024-01-15T09:37:04;5.70;45.00
2783;DHT22;1399;47.072;15.452;2024-01-15T09:39:30;5.70;45.00
2783;DHT22;1399;47.072;15.452;2024-01-15T09:41:57;5.70;44.90
2783;DHT22;1399;47.072;15.452;2024-01-15T09:44:23;5.80;45.00
2783;DHT22;1399;47.072;15.452;2024-01-15T09:46:49;5.80;44.90
2783;DHT22;1399;47.072;15.452;2024-01-15T09:49:16;5.80;44.80
2783;DHT22;1399;47.072;15.452;2024-01-15T09:51:43;5.80;44.80
2783;DHT22;1399;47.072;15.452;2024-01-15T09:54:09;5.90;45.50
2783;DHT22;1399;47.072;15.452;2024-01-15T09:56:35;5.90;44.70
2783;DHT22;1399;47.072;15.452;2024-01-15T09:59:01;5.90;44.70
2783;DHT22;1399;47.072;15.452;2024-01-15T10:01:31;5.90;44.50
2783;DHT22;1399;47.072;15.452;2024-01-15T10:03:58;6.00;44.50
2783;DHT22;1399;47.072;15.452;2024-01-15T10:06:26;6.00;44.50
2783;DHT22;1399;47.072;15.452;2024-01-15T10:08:54;6.00;44.50
2783;DHT22;1399;47.072;15.452;2024-01-15T10:11:22;6.00;44.40
2783;DHT22;1399;47.072;15.452;2024-01-15T10:13:47;6.10;44.50
2783;DHT22;1399;47.072;15.452;2024-01-15T10:16:19;6.10;44.40
2783;DHT22;1399;47.072;15.452;2024-01-15T10:18:44;6.10;44.30
2783;DHT22;1399;47.072;15.452;2024-01-15T10:21:10;6.10;44.30
2783;DHT22;1399;47.072;15.452;2024-01-15T10:23:36;6.20;44.30
2783;DHT22;1399;47.072;15.452;2024-01-15T10:26:03;6.20;44.30
2783;DHT22;1399;47.072;15.452;2024-01-15T10:28:30;6.20;44.30
2783;DHT22;1399;47.072;15.452;2024-01-15T10:30:57;6.20;44.30
2783;DHT22;1399;47.072;15.452;2024-01-15T10:33:25;6.30;44.40
2783;DHT22;1399;47.072;15.452;2024-01-15T10:35:54;6.30;44.30
2783;DHT22;1399;47.072;15.452;2024-01-15T10:38:21;6.30;44.30
2783;DHT22;1399;47.072;15.452;2024-01-15T10:40:56;6.40;44.30
2783;DHT22;1399;47.072;15.452;2024-01-15T10:43:23;6.40;44.30
2783;DHT22;1399;47.072;15.452;2024-01-15T10:45:50;6.40;44.20
2783;DHT22;1399;47.072;15.452;2024-01-15T10:48:18;6.40;44.20
2783;DHT22;1399;47.072;15.452;2024-01-15T10:50:48;6.50;44.30
2783;DHT22;1399;47.072;15.452;2024-01-15T10:53:15;6.50;44.30
2783;DHT22;1399;47.072;15.452;2024-01-15T10:55:42;6.50;44.30
2783;DHT22;1399;47.072;15.452;2024-01-15T10:58:09;6.50;44.30
2783;DHT22;1399;47.072;15.452;2024-01-15T11:00:38;6.60;44.40
2783;DHT22;1399;47.072;15.452;2024-01-15T11:03:05;6.60;44.40
2783;DHT22;1399;47.072;15.452;2024-01-15T11:05:44;6.60;44.40
2783;DHT22;1399;47.072;15.452;2024-01-15T11:08:10;6.70;44.40
2783;DHT22;1399;47.072;15.452;2024-01-15T11:10:45;6.70;45.00
2783;DHT22;1399;47.072;15.452;2024-01-15T11:16:13;6.80;44.40
2783;DHT22;1399;47.072;15.452;2024-01-15T11:19:01;6.90;44.40
2783;DHT22;1399;47.072;15.452;2024-01-15T11:21:27;6.90;44.30
2783;DHT22;1399;47.072;15.452;2024-01-15T11:23:56;6.90;44.30
2783;DHT22;1399;47.072;15.452;2024-01-15T11:32:06;7.00;44.30
2783;DHT22;1399;47.072;15.452;2024-01-15T11:34:57;7.00;44.30
2783;DHT22;1399;47.072;15.452;2024-01-15T11:37:24;7.10;44.20
2783;DHT22;1399;47.072;15.452;2024-01-15T11:39:55;7.10;44.10
2783;DHT22;1399;47.072;15.452;2024-01-15T11:42:22;7.20;44.10
2783;DHT22;1399;47.072;15.452;2024-01-15T11:44:48;7.20;44.00
2783;DHT22;1399;47.072;15.452;2024-01-15T11:47:14;7.20;44.00
2783;DHT22;1399;47.072;15.452;2024-01-15T11:52:33;7.30;44.00
2783;DHT22;1399;47.072;15.452;2024-01-15T11:55:16;7.40;44.10
2783;DHT22;1399;47.072;15.452;2024-01-15T11:57:50;7.40;43.90
2783;DHT22;1399;47.072;15.452;2024-01-15T12:00:17;7.40;43.80
2783;DHT22;1399;47.072;15.452;2024-01-15T12:02:45;7.50;43.80
2783;DHT22;1399;47.072;15.452;2024-01-15T12:05:12;7.50;43.70
2783;DHT22;1399;47.072;15.452;2024-01-15T12:07:42;7.50;43.60
2783;DHT22;1399;47.072;15.452;2024-01-15T12:10:26;7.50;43.50
2783;DHT22;1399;47.072;15.452;2024-01-15T12:13:00;7.60;43.50
2783;DHT22;1399;47.072;15.452;2024-01-15T12:15:28;7.60;43.40
2783;DHT22;1399;47.072;15.452;2024-01-15T12:17:58;7.60;43.30
2783;DHT22;1399;47.072;15.452;2024-01-15T12:20:25;7.70;43.40
2783;DHT22;1399;47.072;15.452;2024-01-15T12:22:52;7.70;43.30
2783;DHT22;1399;47.072;15.452;2024-01-15T12:25:17;7.70;43.20
2783;DHT22;1399;47.072;15.452;2024-01-15T12:27:44;7.70;43.20
2783;DHT22;1399;47.072;15.452;2024-01-15T12:30:16;7.70;43.10
2783;DHT22;1399;47.072;15.452;2024-01-15T12:32:42;7.80;43.10
2783;DHT22;1399;47.072;15.452;2024-01-15T12:35:09;7.80;43.00
2783;DHT22;1399;47.072;15.452;2024-01-15T12:37:36;7.80;43.10
2783;DHT22;1399;47.072;15.452;2024-01-15T12:40:03;7.80;43.00
2783;DHT22;1399;47.072;15.452;2024-01-15T12:42:36;7.80;43.00
2783;DHT22;1399;47.072;15.452;2024-01-15T12:45:04;7.90;43.00
2783;DHT22;1399;47.072;15.452;2024-01-15T12:47:31;7.90;43.00
2783;DHT22;1399;47.072;15.452;2024-01-15T12:49:58;7.90;42.90
2783;DHT22;1399;47.072;15.452;2024-01-15T12:52:27;7.90;42.90
2783;DHT22;1399;47.072;15.452;2024-01-15T12:54:53;7.90;42.80
2783;DHT22;1399;47.072;15.452;2024-01-15T12:57:19;7.90;42.70
2783;DHT22;1399;47.072;15.452;2024-01-15T12:59:45;7.90;42.70
2783;DHT22;1399;47.072;15.452;2024-01-15T13:02:15;8.00;42.90
2783;DHT22;1399;47.072;15.452;2024-01-15T13:04:42;8.00;43.00
2783;DHT22;1399;47.072;15.452;2024-01-15T13:07:08;8.10;43.10
2783;DHT22;1399;47.072;15.452;2024-01-15T13:09:34;8.10;43.10
2783;DHT22;1399;47.072;15.452;2024-01-15T13:12:01;8.10;43.00
2783;DHT22;1399;47.072;15.452;2024-01-15T13:14:28;8.10;42.80
2783;DHT22;1399;47.072;15.452;2024-01-15T13:16:54;8.20;42.80
2783;DHT22;1399;47.072;15.452;2024-01-15T13:19:20;8.20;42.80
2783;DHT22;1399;47.072;15.452;2024-01-15T13:21:49;8.20;42.80
2783;DHT22;1399;47.072;15.452;2024-01-15T13:24:17;8.20;42.80
2783;DHT22;1399;47.072;15.452;2024-01-15T13:26:42;8.30;42.80
2783;DHT22;1399;47.072;15.452;2024-01-15T13:29:09;8.30;42.70
2783;DHT22;1399;47.072;15.452;2024-01-15T13:31:34;8.40;42.70
2783;DHT22;1399;47.072;15.452;2024-01-15T13:34:00;8.40;42.60
2783;DHT22;1399;47.072;15.452;2024-01-15T13:36:27;8.40;42.60
2783;DHT22;1399;47.072;15.452;2024-01-15T13:38:53;8.40;42.60
2783;DHT22;1399;47.072;15.452;2024-01-15T13:41:20;8.50;42.70
2783;DHT22;1399;47.072;15.452;2024-01-15T13:43:54;8.50;42.80
2783;DHT22;1399;47.072;15.452;2024-01-15T13:46:24;8.50;42.80
2783;DHT22;1399;47.072;15.452;2024-01-15T13:48:50;8.50;42.90
2783;DHT22;1399;47.072;15.452;2024-01-15T13:51:16;8.50;42.90
2783;DHT22;1399;47.072;15.452;2024-01-15T13:53:42;8.60;43.00
2783;DHT22;1399;47.072;15.452;2024-01-15T13:56:07;8.60;42.90
2783;DHT22;1399;47.072;15.452;2024-01-15T13:58:35;8.60;42.90
2783;DHT22;1399;47.072;15.452;2024-01-15T14:01:01;8.60;42.80
2783;DHT22;1399;47.072;15.452;2024-01-15T14:03:29;8.70;42.80
2783;DHT22;1399;47.072;15.452;2024-01-15T14:05:55;8.70;42.90
2783;DHT22;1399;47.072;15.452;2024-01-15T14:08:21;8.70;42.90
2783;DHT22;1399;47.072;15.452;2024-01-15T14:10:47;8.70;42.90
2783;DHT22;1399;47.072;15.452;2024-01-15T14:13:12;8.70;42.80
2783;DHT22;1399;47.072;15.452;2024-01-15T14:15:38;8.70;42.80
2783;DHT22;1399;47.072;15.452;2024-01-15T14:18:04;8.70;42.70
2783;DHT22;1399;47.072;15.452;2024-01-15T14:20:30;8.70;42.60
2783;DHT22;1399;47.072;15.452;2024-01-15T14:22:56;8.70;42.60
2783;DHT22;1399;47.072;15.452;2024-01-15T14:25:22;8.70;42.50
2783;DHT22;1399;47.072;15.452;2024-01-15T14:27:48;8.70;42.50
2783;DHT22;1399;47.072;15.452;2024-01-15T14:30:16;8.70;42.50
2783;DHT22;1399;47.072;15.452;2024-01-15T14:32:42;8.70;42.50
2783;DHT22;1399;47.072;15.452;2024-01-15T14:35:09;8.70;42.60
2783;DHT22;1399;47.072;15.452;2024-01-15T14:37:39;8.70;42.60
2783;DHT22;1399;47.072;15.452;2024-01-15T14:40:05;8.70;42.60
2783;DHT22;1399;47.072;15.452;2024-01-15T14:42:34;8.70;42.60
2783;DHT22;1399;47.072;15.452;2024-01-15T14:45:00;8.70;42.60
2783;DHT22;1399;47.072;15.452;2024-01-15T14:47:27;8.70;42.60
2783;DHT22;1399;47.072;15.452;2024-01-15T14:49:53;8.70;42.60
2783;DHT22;1399;47.072;15.452;2024-01-15T14:52:19;8.70;42.60
2783;DHT22;1399;47.072;15.452;2024-01-15T14:54:45;8.70;42.70
2783;DHT22;1399;47.072;15.452;2024-01-15T14:57:13;8.70;42.60
2783;DHT22;1399;47.072;15.452;2024-01-15T14:59:39;8.70;42.60
2783;DHT22;1399;47.072;15.452;2024-01-15T15:02:06;8.70;42.60
2783;DHT22;1399;47.072;15.452;2024-01-15T15:04:32;8.70;42.50
2783;DHT22;1399;47.072;15.452;2024-01-15T15:06:58;8.70;42.40
2783;DHT22;1399;47.072;15.452;2024-01-15T15:09:23;8.70;42.40
2783;DHT22;1399;47.072;15.452;2024-01-15T15:11:49;8.70;42.40
2783;DHT22;1399;47.072;15.452;2024-01-15T15:14:16;8.70;42.40
2783;DHT22;1399;47.072;15.452;2024-01-15T15:16:42;8.70;42.40
2783;DHT22;1399;47.072;15.452;2024-01-15T15:19:08;8.70;42.40
2783;DHT22;1399;47.072;15.452;2024-01-15T15:21:34;8.70;42.40
2783;DHT22;1399;47.072;15.452;2024-01-15T15:23:59;8.70;42.40
2783;DHT22;1399;47.072;15.452;2024-01-15T15:26:26;8.70;42.40
2783;DHT22;1399;47.072;15.452;2024-01-15T15:28:51;8.70;42.40
2783;DHT22;1399;47.072;15.452;2024-01-15T15:31:17;8.60;42.40
2783;DHT22;1399;47.072;15.452;2024-01-15T15:33:43;8.70;42.40
2783;DHT22;1399;47.072;15.452;2024-01-15T15:36:10;8.70;42.40
2783;DHT22;1399;47.072;15.452;2024-01-15T15:38:36;8.60;42.40
2783;DHT22;1399;47.072;15.452;2024-01-15T15:41:02;8.60;42.50
2783;DHT22;1399;47.072;15.452;2024-01-15T15:43:28;8.70;42.60
2783;DHT22;1399;47.072;15.452;2024-01-15T15:45:54;8.60;42.50
2783;DHT22;1399;47.072;15.452;2024-01-15T15:48:20;8.70;42.50
2783;DHT22;1399;47.072;15.452;2024-01-15T15:50:46;8.60;42.50
2783;DHT22;1399;47.072;15.452;2024-01-15T15:53:12;8.60;42.50
2783;DHT22;1399;47.072;15.452;2024-01-15T15:55:38;8.60;42.40
2783;DHT22;1399;47.072;15.452;2024-01-15T15:58:05;8.60;42.40
2783;DHT22;1399;47.072;15.452;2024-01-15T16:00:31;8.60;42.50
2783;DHT22;1399;47.072;15.452;2024-01-15T16:02:57;8.60;42.50
2783;DHT22;1399;47.072;15.452;2024-01-15T16:05:23;8.60;42.50
2783;DHT22;1399;47.072;15.452;2024-01-15T16:07:49;8.60;42.50
2783;DHT22;1399;47.072;15.452;2024-01-15T16:10:15;8.60;42.50